sensor_id;sensor_type;location;lat;lon;timestamp;pressure;altitude;pressure_sealevel;temperature;humidity
75460;BME280;64039;53.060;9.342;2023-03-31T00:01:37;99951.84;;;9.36;100.00
75460;BME280;64039;53.060;9.342;2023-03-31T00:04:07;99953.53;;;9.32;100.00
75460;BME280;64039;53.060;9.342;2023-03-31T00:06:37;99947.47;;;9.33;100.00
75460;BME280;64039;53.060;9.342;2023-03-31T00:09:07;99949.97;;;9.25;100.00
75460;BME280;64039;53.060;9.342;2023-03-31T00:11:33;99943.13;;;9.31;100.00
75460;BME280;64039;53.060;9.342;2023-03-31T00:13:59;99947.50;;;9.36;100.00
75460;BME280;64039;53.060;9.342;2023-03-31T00:16:25;99945.78;;;9.35;100.00
75460;BME280;64039;53.060;9.342;2023-03-31T00:18:51;99948.38;;;9.38;100.00
75460;BME280;64039;53.060;9.342;2023-03-31T00:21:22;99942.28;;;9.32;100.00
75460;BME280;64039;53.060;9.342;2023-03-31T00:24:02;99932.84;;;9.41;100.00
75460;BME280;64039;53.060;9.342;2023-03-31T00:26:28;99927.66;;;9.41;100.00
75460;BME280;64039;53.060;9.342;2023-03-31T00:28:55;99925.13;;;9.46;100.00
75460;BME280;64039;53.060;9.342;2023-03-31T00:31:21;99926.88;;;9.49;100.00
75460;BME280;64039;53.060;9.342;2023-03-31T00:33:47;99932.00;;;9.44;100.00
75460;BME280;64039;53.060;9.342;2023-03-31T00:36:13;99923.50;;;9.57;100.00
75460;BME280;64039;53.060;9.342;2023-03-31T00:38:48;99917.44;;;9.55;100.00
75460;BME280;64039;53.060;9.342;2023-03-31T00:41:16;99905.34;;;9.59;100.00
75460;BME280;64039;53.060;9.342;2023-03-31T00:46:29;99897.44;;;9.50;100.00
75460;BME280;64039;53.060;9.342;2023-03-31T00:48:57;99904.44;;;9.58;100.00
75460;BME280;64039;53.060;9.342;2023-03-31T00:51:29;99899.22;;;9.54;100.00
75460;BME280;64039;53.060;9.342;2023-03-31T00:53:59;99894.00;;;9.51;100.00
75460;BME280;64039;53.060;9.342;2023-03-31T00:56:29;99889.66;;;9.53;100.00
75460;BME280;64039;53.060;9.342;2023-03-31T00:59:01;99881.03;;;9.54;100.00
75460;BME280;64039;53.060;9.342;2023-03-31T01:01:30;99885.41;;;9.56;100.00
75460;BME280;64039;53.060;9.342;2023-03-31T01:03:55;99880.16;;;9.55;100.00
75460;BME280;64039;53.060;9.342;2023-03-31T01:06:22;99876.75;;;9.59;100.00
75460;BME280;64039;53.060;9.342;2023-03-31T01:08:50;99877.66;;;9.61;100.00
75460;BME280;64039;53.060;9.342;2023-03-31T01:11:19;99864.69;;;9.64;100.00
75460;BME280;64039;53.060;9.342;2023-03-31T01:13:47;99864.69;;;9.66;100.00
75460;BME280;64039;53.060;9.342;2023-03-31T01:16:16;99856.84;;;9.59;100.00
75460;BME280;64039;53.060;9.342;2023-03-31T01:18:42;99865.63;;;9.69;100.00
75460;BME280;64039;53.060;9.342;2023-03-31T01:22:15;99865.66;;;9.77;100.00
75460;BME280;64039;53.060;9.342;2023-03-31T01:27:32;99850.88;;;9.70;100.00
75460;BME280;64039;53.060;9.342;2023-03-31T01:38:49;99837.97;;;9.79;100.00
75460;BME280;64039;53.060;9.342;2023-03-31T01:47:00;99822.41;;;9.84;100.00
75460;BME280;64039;53.060;9.342;2023-03-31T01:49:36;99821.53;;;9.83;100.00
75460;BME280;64039;53.060;9.342;2023-03-31T01:54:45;99802.47;;;9.81;100.00
75460;BME280;64039;53.060;9.342;2023-03-31T01:57:30;99798.13;;;9.82;100.00
75460;BME280;64039;53.060;9.342;2023-03-31T02:02:31;99798.16;;;9.85;100.00
75460;BME280;64039;53.060;9.342;2023-03-31T02:05:10;99797.34;;;9.92;100.00
75460;BME280;64039;53.060;9.342;2023-03-31T02:07:48;99789.56;;;9.94;100.00
75460;BME280;64039;53.060;9.342;2023-03-31T02:10:17;99787.78;;;9.88;100.00
75460;BME280;64039;53.060;9.342;2023-03-31T02:12:44;99779.91;;;9.79;100.00
75460;BME280;64039;53.060;9.342;2023-03-31T02:15:16;99773.03;;;9.85;100.00
75460;BME280;64039;53.060;9.342;2023-03-31T02:17:45;99765.25;;;9.84;100.00
75460;BME280;64039;53.060;9.342;2023-03-31T02:20:14;99764.34;;;9.83;100.00
75460;BME280;64039;53.060;9.342;2023-03-31T02:22:46;99757.41;;;9.78;100.00
75460;BME280;64039;53.060;9.342;2023-03-31T02:25:17;99762.56;;;9.74;100.00
75460;BME280;64039;53.060;9.342;2023-03-31T02:27:49;99758.22;;;9.75;100.00
75460;BME280;64039;53.060;9.342;2023-03-31T02:30:15;99756.44;;;9.68;100.00
75460;BME280;64039;53.060;9.342;2023-03-31T02:32:43;99760.81;;;9.72;100.00
75460;BME280;64039;53.060;9.342;2023-03-31T02:35:15;99749.53;;;9.71;100.00
75460;BME280;64039;53.060;9.342;2023-03-31T02:37:41;99748.69;;;9.69;100.00
75460;BME280;64039;53.060;9.342;2023-03-31T02:40:12;99747.78;;;9.70;100.00
75460;BME280;64039;53.060;9.342;2023-03-31T02:42:40;99747.78;;;9.70;100.00
75460;BME280;64039;53.060;9.342;2023-03-31T02:45:37;99746.94;;;9.71;100.00
75460;BME280;64039;53.060;9.342;2023-03-31T02:48:05;99752.16;;;9.76;100.00
75460;BME280;64039;53.060;9.342;2023-03-31T02:50:43;99744.34;;;9.70;100.00
75460;BME280;64039;53.060;9.342;2023-03-31T02:58:59;99724.44;;;9.73;100.00
75460;BME280;64039;53.060;9.342;2023-03-31T03:07:04;99722.69;;;9.69;100.00
75460;BME280;64039;53.060;9.342;2023-03-31T03:17:38;99707.94;;;9.64;100.00
75460;BME280;64039;53.060;9.342;2023-03-31T03:20:06;99709.59;;;9.57;100.00
75460;BME280;64039;53.060;9.342;2023-03-31T03:22:34;99700.94;;;9.56;100.00
75460;BME280;64039;53.060;9.342;2023-03-31T03:25:00;99702.69;;;9.59;100.00
75460;BME280;64039;53.060;9.342;2023-03-31T03:27:26;99694.94;;;9.67;100.00
75460;BME280;64039;53.060;9.342;2023-03-31T03:29:52;99689.72;;;9.59;100.00
75460;BME280;64039;53.060;9.342;2023-03-31T03:32:18;99695.78;;;9.63;100.00
75460;BME280;64039;53.060;9.342;2023-03-31T03:34:43;99697.47;;;9.54;100.00
75460;BME280;64039;53.060;9.342;2023-03-31T03:37:09;99693.19;;;9.61;100.00
75460;BME280;64039;53.060;9.342;2023-03-31T03:39:34;99684.50;;;9.60;100.00
75460;BME280;64039;53.060;9.342;2023-03-31T03:42:00;99684.53;;;9.67;100.00
75460;BME280;64039;53.060;9.342;2023-03-31T03:44:25;99678.47;;;9.63;100.00
75460;BME280;64039;53.060;9.342;2023-03-31T03:46:51;99679.28;;;9.54;100.00
75460;BME280;64039;53.060;9.342;2023-03-31T03:49:16;99666.25;;;9.51;100.00
75460;BME280;64039;53.060;9.342;2023-03-31T03:51:42;99663.66;;;9.51;100.00
75460;BME280;64039;53.060;9.342;2023-03-31T03:54:07;99660.19;;;9.46;100.00
75460;BME280;64039;53.060;9.342;2023-03-31T03:56:33;99661.06;;;9.51;100.00
75460;BME280;64039;53.060;9.342;2023-03-31T03:58:58;99653.28;;;9.48;100.00
75460;BME280;64039;53.060;9.342;2023-03-31T04:01:24;99649.84;;;9.58;100.00
75460;BME280;64039;53.060;9.342;2023-03-31T04:03:49;99642.97;;;9.64;100.00
75460;BME280;64039;53.060;9.342;2023-03-31T04:06:15;99640.34;;;9.59;100.00
75460;BME280;64039;53.060;9.342;2023-03-31T04:08:40;99634.19;;;9.46;100.00
75460;BME280;64039;53.060;9.342;2023-03-31T04:11:23;99637.66;;;9.45;100.00
75460;BME280;64039;53.060;9.342;2023-03-31T04:13:50;99629.00;;;9.46;100.00
75460;BME280;64039;53.060;9.342;2023-03-31T04:16:16;99630.72;;;9.42;100.00
75460;BME280;64039;53.060;9.342;2023-03-31T04:18:43;99619.38;;;9.33;100.00
75460;BME280;64039;53.060;9.342;2023-03-31T04:21:11;99617.69;;;9.39;100.00
75460;BME280;64039;53.060;9.342;2023-03-31T04:23:40;99610.78;;;9.43;100.00
75460;BME280;64039;53.060;9.342;2023-03-31T04:26:13;99607.41;;;9.52;100.00
75460;BME280;64039;53.060;9.342;2023-03-31T04:28:38;99607.34;;;9.44;100.00
75460;BME280;64039;53.060;9.342;2023-03-31T04:31:10;99596.97;;;9.42;100.00
75460;BME280;64039;53.060;9.342;2023-03-31T04:33:40;99590.94;;;9.53;100.00
75460;BME280;64039;53.060;9.342;2023-03-31T04:36:06;99590.03;;;9.49;100.00
75460;BME280;64039;53.060;9.342;2023-03-31T04:38:47;99577.13;;;9.62;100.00
75460;BME280;64039;53.060;9.342;2023-03-31T04:41:17;99573.56;;;9.46;100.00
75460;BME280;64039;53.060;9.342;2023-03-31T04:43:43;99569.31;;;9.57;100.00
75460;BME280;64039;53.060;9.342;2023-03-31T04:46:08;99565.81;;;9.49;100.00
75460;BME280;64039;53.060;9.342;2023-03-31T04:48:35;99558.06;;;9.58;100.00
75460;BME280;64039;53.060;9.342;2023-03-31T04:51:01;99558.06;;;9.52;100.00
75460;BME280;64039;53.060;9.342;2023-03-31T04:53:26;99554.59;;;9.57;100.00
75460;BME280;64039;53.060;9.342;2023-03-31T04:55:52;99544.09;;;9.34;100.00
75460;BME280;64039;53.060;9.342;2023-03-31T04:58:17;99534.56;;;9.36;100.00
75460;BME280;64039;53.060;9.342;2023-03-31T05:00:43;99534.56;;;9.35;100.00
75460;BME280;64039;53.060;9.342;2023-03-31T05:03:08;99531.88;;;9.19;100.00
75460;BME280;64039;53.060;9.342;2023-03-31T05:05:34;99516.34;;;9.25;100.00
75460;BME280;64039;53.060;9.342;2023-03-31T05:08:00;99523.28;;;9.25;100.00
75460;BME280;64039;53.060;9.342;2023-03-31T05:10:26;99518.94;;;9.24;100.00
75460;BME280;64039;53.060;9.342;2023-03-31T05:12:51;99510.22;;;9.11;100.00
75460;BME280;64039;53.060;9.342;2023-03-31T05:15:17;99514.53;;;9.10;100.00
75460;BME280;64039;53.060;9.342;2023-03-31T05:17:42;99505.88;;;9.08;100.00
75460;BME280;64039;53.060;9.342;2023-03-31T05:20:08;99505.91;;;9.15;100.00
75460;BME280;64039;53.060;9.342;2023-03-31T05:22:36;99500.66;;;9.02;100.00
75460;BME280;64039;53.060;9.342;2023-03-31T05:25:04;99497.16;;;9.00;100.00
75460;BME280;64039;53.060;9.342;2023-03-31T05:27:30;99498.81;;;8.90;100.00
75460;BME280;64039;53.060;9.342;2023-03-31T05:29:56;99497.16;;;9.02;100.00
75460;BME280;64039;53.060;9.342;2023-03-31T05:32:21;99492.88;;;9.02;100.00
75460;BME280;64039;53.060;9.342;2023-03-31T05:34:47;99492.81;;;8.96;100.00
75460;BME280;64039;53.060;9.342;2023-03-31T05:37:14;99487.75;;;9.18;100.00
75460;BME280;64039;53.060;9.342;2023-03-31T05:39:39;99482.53;;;9.15;100.00
75460;BME280;64039;53.060;9.342;2023-03-31T05:42:05;99481.75;;;9.30;100.00
75460;BME280;64039;53.060;9.342;2023-03-31T05:44:31;99475.63;;;9.20;100.00
75460;BME280;64039;53.060;9.342;2023-03-31T05:46:57;99476.56;;;9.30;100.00
75460;BME280;64039;53.060;9.342;2023-03-31T05:49:22;99468.78;;;9.36;100.00
75460;BME280;64039;53.060;9.342;2023-03-31T05:51:48;99473.16;;;9.43;100.00
75460;BME280;64039;53.060;9.342;2023-03-31T05:54:13;99474.94;;;9.59;100.00
75460;BME280;64039;53.060;9.342;2023-03-31T05:56:39;99477.53;;;9.55;100.00
75460;BME280;64039;53.060;9.342;2023-03-31T05:59:04;99469.75;;;9.58;100.00
75460;BME280;64039;53.060;9.342;2023-03-31T06:01:29;99465.44;;;9.63;100.00
75460;BME280;64039;53.060;9.342;2023-03-31T06:03:55;99477.56;;;9.70;100.00
75460;BME280;64039;53.060;9.342;2023-03-31T06:06:21;99468.03;;;9.66;100.00
75460;BME280;64039;53.060;9.342;2023-03-31T06:08:47;99465.44;;;9.65;100.00
75460;BME280;64039;53.060;9.342;2023-03-31T06:11:16;99464.56;;;9.63;100.00
75460;BME280;64039;53.060;9.342;2023-03-31T06:13:43;99473.19;;;9.51;100.00
75460;BME280;64039;53.060;9.342;2023-03-31T06:16:11;99460.22;;;9.51;100.00
75460;BME280;64039;53.060;9.342;2023-03-31T06:18:37;99461.00;;;9.36;100.00
75460;BME280;64039;53.060;9.342;2023-03-31T06:21:03;99457.53;;;9.37;100.00
75460;BME280;64039;53.060;9.342;2023-03-31T06:23:29;99454.91;;;9.26;100.00
75460;BME280;64039;53.060;9.342;2023-03-31T06:25:59;99459.25;;;9.36;100.00
75460;BME280;64039;53.060;9.342;2023-03-31T06:28:25;99443.66;;;9.22;100.00
75460;BME280;64039;53.060;9.342;2023-03-31T06:31:00;99454.91;;;9.29;100.00
75460;BME280;64039;53.060;9.342;2023-03-31T06:33:26;99450.59;;;9.37;100.00
75460;BME280;64039;53.060;9.342;2023-03-31T06:35:54;99433.31;;;9.41;100.00
75460;BME280;64039;53.060;9.342;2023-03-31T06:38:20;99434.19;;;9.41;100.00
75460;BME280;64039;53.060;9.342;2023-03-31T06:40:46;99429.03;;;9.52;100.00
75460;BME280;64039;53.060;9.342;2023-03-31T06:43:11;99424.66;;;9.42;100.00
75460;BME280;64039;53.060;9.342;2023-03-31T06:45:37;99422.09;;;9.53;100.00
75460;BME280;64039;53.060;9.342;2023-03-31T06:48:02;99416.91;;;9.53;100.00
75460;BME280;64039;53.060;9.342;2023-03-31T06:50:27;99409.16;;;9.64;100.00
75460;BME280;64039;53.060;9.342;2023-03-31T06:52:53;99413.47;;;9.60;100.00
75460;BME280;64039;53.060;9.342;2023-03-31T06:55:19;99417.78;;;9.55;100.00
75460;BME280;64039;53.060;9.342;2023-03-31T06:57:45;99419.53;;;9.59;100.00
75460;BME280;64039;53.060;9.342;2023-03-31T07:00:11;99415.22;;;9.63;100.00
75460;BME280;64039;53.060;9.342;2023-03-31T07:02:37;99419.53;;;9.71;100.00
75460;BME280;64039;53.060;9.342;2023-03-31T07:05:02;99416.09;;;9.75;100.00
75460;BME280;64039;53.060;9.342;2023-03-31T07:07:30;99414.38;;;9.68;100.00
75460;BME280;64039;53.060;9.342;2023-03-31T07:09:56;99408.31;;;9.71;100.00
75460;BME280;64039;53.060;9.342;2023-03-31T07:12:22;99410.03;;;9.75;100.00
75460;BME280;64039;53.060;9.342;2023-03-31T07:14:47;99408.31;;;9.71;100.00
75460;BME280;64039;53.060;9.342;2023-03-31T07:17:13;99415.22;;;9.70;100.00
75460;BME280;64039;53.060;9.342;2023-03-31T07:19:38;99411.75;;;9.71;100.00
75460;BME280;64039;53.060;9.342;2023-03-31T07:22:07;99403.06;;;9.63;100.00
75460;BME280;64039;53.060;9.342;2023-03-31T07:24:33;99400.50;;;9.66;100.00
75460;BME280;64039;53.060;9.342;2023-03-31T07:26:58;99393.56;;;9.67;100.00
75460;BME280;64039;53.060;9.342;2023-03-31T07:29:24;99393.53;;;9.54;100.00
75460;BME280;64039;53.060;9.342;2023-03-31T07:31:49;99397.00;;;9.49;100.00
75460;BME280;64039;53.060;9.342;2023-03-31T07:34:15;99390.97;;;9.59;100.00
75460;BME280;64039;53.060;9.342;2023-03-31T07:36:41;99390.09;;;9.57;100.00
75460;BME280;64039;53.060;9.342;2023-03-31T07:39:06;99384.88;;;9.57;100.00
75460;BME280;64039;53.060;9.342;2023-03-31T07:41:32;99376.22;;;9.66;100.00
75460;BME280;64039;53.060;9.342;2023-03-31T07:43:58;99369.31;;;9.65;100.00
75460;BME280;64039;53.060;9.342;2023-03-31T07:46:26;99377.09;;;9.74;100.00
75460;BME280;64039;53.060;9.342;2023-03-31T07:48:54;99381.47;;;9.77;100.00
75460;BME280;64039;53.060;9.342;2023-03-31T07:51:22;99369.31;;;9.68;100.00
75460;BME280;64039;53.060;9.342;2023-03-31T07:53:48;99371.91;;;9.66;100.00
75460;BME280;64039;53.060;9.342;2023-03-31T07:56:14;99367.59;;;9.73;100.00
75460;BME280;64039;53.060;9.342;2023-03-31T07:58:41;99365.00;;;9.84;100.00
75460;BME280;64039;53.060;9.342;2023-03-31T08:01:07;99360.66;;;9.75;100.00
75460;BME280;64039;53.060;9.342;2023-03-31T08:03:32;99358.06;;;9.75;100.00
75460;BME280;64039;53.060;9.342;2023-03-31T08:05:58;99358.06;;;9.95;100.00
75460;BME280;64039;53.060;9.342;2023-03-31T08:08:24;99352.00;;;9.95;100.00
75460;BME280;64039;53.060;9.342;2023-03-31T08:10:49;99346.81;;;9.99;100.00
75460;BME280;64039;53.060;9.342;2023-03-31T08:13:15;99339.03;;;10.02;100.00
75460;BME280;64039;53.060;9.342;2023-03-31T08:15:40;99330.34;;;10.05;100.00
75460;BME280;64039;53.060;9.342;2023-03-31T08:18:06;99331.22;;;10.18;100.00
75460;BME280;64039;53.060;9.342;2023-03-31T08:20:31;99329.47;;;10.09;100.00
75460;BME280;64039;53.060;9.342;2023-03-31T08:22:57;99328.63;;;10.13;100.00
75460;BME280;64039;53.060;9.342;2023-03-31T08:25:22;99326.88;;;10.15;100.00
75460;BME280;64039;53.060;9.342;2023-03-31T08:27:48;99319.94;;;10.17;100.00
75460;BME280;64039;53.060;9.342;2023-03-31T08:30:18;99318.19;;;10.21;100.00
75460;BME280;64039;53.060;9.342;2023-03-31T08:32:44;99313.88;;;10.07;100.00
75460;BME280;64039;53.060;9.342;2023-03-31T08:35:10;99312.16;;;10.14;100.00
75460;BME280;64039;53.060;9.342;2023-03-31T08:37:36;99310.38;;;10.30;100.00
75460;BME280;64039;53.060;9.342;2023-03-31T08:40:03;99303.44;;;10.51;100.00
75460;BME280;64039;53.060;9.342;2023-03-31T08:42:42;99301.72;;;10.45;100.00
75460;BME280;64039;53.060;9.342;2023-03-31T08:47:44;99292.06;;;10.70;100.00
75460;BME280;64039;53.060;9.342;2023-03-31T08:50:16;99287.69;;;10.83;100.00
75460;BME280;64039;53.060;9.342;2023-03-31T08:52:48;99284.19;;;10.92;100.00
75460;BME280;64039;53.060;9.342;2023-03-31T08:55:23;99274.63;;;10.99;100.00
75460;BME280;64039;53.060;9.342;2023-03-31T08:58:05;99278.06;;;11.03;100.00
75460;BME280;64039;53.060;9.342;2023-03-31T09:00:52;99274.59;;;11.04;100.00
75460;BME280;64039;53.060;9.342;2023-03-31T09:06:07;99265.97;;;10.91;100.00
75460;BME280;64039;53.060;9.342;2023-03-31T09:08:37;99265.94;;;10.94;100.00
75460;BME280;64039;53.060;9.342;2023-03-31T09:11:31;99258.19;;;10.83;100.00
75460;BME280;64039;53.060;9.342;2023-03-31T09:19:37;99248.53;;;11.05;100.00
75460;BME280;64039;53.060;9.342;2023-03-31T09:22:11;99245.13;;;10.97;100.00
75460;BME280;64039;53.060;9.342;2023-03-31T09:27:19;99239.09;;;10.85;100.00
75460;BME280;64039;53.060;9.342;2023-03-31T09:29:49;99240.88;;;10.80;100.00
75460;BME280;64039;53.060;9.342;2023-03-31T09:32:20;99227.88;;;10.76;100.00
75460;BME280;64039;53.060;9.342;2023-03-31T09:34:50;99229.59;;;10.81;100.00
75460;BME280;64039;53.060;9.342;2023-03-31T09:37:16;99223.50;;;10.81;100.00
75460;BME280;64039;53.060;9.342;2023-03-31T09:39:41;99218.31;;;10.82;100.00
75460;BME280;64039;53.060;9.342;2023-03-31T09:42:12;99220.06;;;10.76;100.00
75460;BME280;64039;53.060;9.342;2023-03-31T09:44:40;99202.72;;;10.78;100.00
75460;BME280;64039;53.060;9.342;2023-03-31T09:47:32;99207.91;;;10.82;100.00
75460;BME280;64039;53.060;9.342;2023-03-31T09:50:03;99205.22;;;10.90;100.00
75460;BME280;64039;53.060;9.342;2023-03-31T09:52:39;99200.03;;;10.87;100.00
75460;BME280;64039;53.060;9.342;2023-03-31T09:57:46;99200.03;;;10.90;100.00
75460;BME280;64039;53.060;9.342;2023-03-31T10:02:56;99181.84;;;10.85;100.00
75460;BME280;64039;53.060;9.342;2023-03-31T10:05:34;99184.41;;;10.93;100.00
75460;BME280;64039;53.060;9.342;2023-03-31T10:10:52;99173.09;;;10.96;100.00
75460;BME280;64039;53.060;9.342;2023-03-31T10:13:27;99165.28;;;10.93;100.00
75460;BME280;64039;53.060;9.342;2023-03-31T10:16:01;99160.97;;;10.93;100.00
75460;BME280;64039;53.060;9.342;2023-03-31T10:18:35;99161.81;;;10.94;100.00
75460;BME280;64039;53.060;9.342;2023-03-31T10:21:03;99166.22;;;10.85;100.00
75460;BME280;64039;53.060;9.342;2023-03-31T10:23:31;99170.53;;;10.91;100.00
75460;BME280;64039;53.060;9.342;2023-03-31T10:25:58;99156.63;;;10.94;100.00
75460;BME280;64039;53.060;9.342;2023-03-31T10:28:24;99166.13;;;10.99;100.00
75460;BME280;64039;53.060;9.342;2023-03-31T10:30:53;99164.44;;;10.94;100.00
75460;BME280;64039;53.060;9.342;2023-03-31T10:33:22;99158.44;;;10.79;100.00
75460;BME280;64039;53.060;9.342;2023-03-31T10:35:57;99158.53;;;10.68;100.00
75460;BME280;64039;53.060;9.342;2023-03-31T10:38:43;99156.69;;;10.83;100.00
75460;BME280;64039;53.060;9.342;2023-03-31T10:41:10;99148.94;;;10.77;100.00
75460;BME280;64039;53.060;9.342;2023-03-31T10:43:41;99147.19;;;10.80;100.00
75460;BME280;64039;53.060;9.342;2023-03-31T10:46:07;99135.72;;;11.03;100.00
75460;BME280;64039;53.060;9.342;2023-03-31T10:48:38;99142.56;;;11.15;100.00
75460;BME280;64039;53.060;9.342;2023-03-31T10:53:45;99139.91;;;11.21;100.00
75460;BME280;64039;53.060;9.342;2023-03-31T10:56:26;99132.03;;;11.32;100.00
75460;BME280;64039;53.060;9.342;2023-03-31T10:59:13;99131.94;;;11.40;100.00
75460;BME280;64039;53.060;9.342;2023-03-31T11:06:56;99125.66;;;11.61;100.00
75460;BME280;64039;53.060;9.342;2023-03-31T11:15:48;99115.28;;;11.58;100.00
75460;BME280;64039;53.060;9.342;2023-03-31T11:19:00;99117.72;;;11.73;100.00
75460;BME280;64039;53.060;9.342;2023-03-31T11:21:40;99113.56;;;11.54;100.00
75460;BME280;64039;53.060;9.342;2023-03-31T11:32:32;99114.75;;;11.19;100.00
75460;BME280;64039;53.060;9.342;2023-03-31T11:35:28;99115.63;;;11.21;100.00
75460;BME280;64039;53.060;9.342;2023-03-31T11:43:06;99112.03;;;11.36;100.00
75460;BME280;64039;53.060;9.342;2023-03-31T11:45:56;99099.88;;;11.31;100.00
75460;BME280;64039;53.060;9.342;2023-03-31T11:48:32;99112.06;;;11.29;100.00
75460;BME280;64039;53.060;9.342;2023-03-31T11:51:02;99111.13;;;11.35;100.00
75460;BME280;64039;53.060;9.342;2023-03-31T11:53:37;99104.84;;;11.59;100.00
75460;BME280;64039;53.060;9.342;2023-03-31T11:56:06;99106.50;;;11.63;100.00
75460;BME280;64039;53.060;9.342;2023-03-31T11:58:43;99102.78;;;11.88;100.00
75460;BME280;64039;53.060;9.342;2023-03-31T12:01:24;99097.91;;;11.57;100.00
75460;BME280;64039;53.060;9.342;2023-03-31T12:06:39;99079.13;;;12.06;100.00
75460;BME280;64039;53.060;9.342;2023-03-31T12:09:16;99078.59;;;12.43;100.00
75460;BME280;64039;53.060;9.342;2023-03-31T12:12:05;99069.72;;;12.55;100.00
75460;BME280;64039;53.060;9.342;2023-03-31T12:14:38;99064.75;;;12.96;100.00
75460;BME280;64039;53.060;9.342;2023-03-31T12:17:10;99066.44;;;13.00;100.00
75460;BME280;64039;53.060;9.342;2023-03-31T12:19:52;99054.78;;;13.18;100.00
75460;BME280;64039;53.060;9.342;2023-03-31T12:22:28;99057.97;;;13.36;100.00
75460;BME280;64039;53.060;9.342;2023-03-31T12:24:58;99065.13;;;13.26;100.00
75460;BME280;64039;53.060;9.342;2023-03-31T12:27:28;99061.53;;;13.30;100.00
75460;BME280;64039;53.060;9.342;2023-03-31T12:30:00;99064.63;;;13.04;100.00
75460;BME280;64039;53.060;9.342;2023-03-31T12:32:39;99068.41;;;12.86;100.00
75460;BME280;64039;53.060;9.342;2023-03-31T12:35:31;99062.44;;;12.79;100.00
75460;BME280;64039;53.060;9.342;2023-03-31T12:46:17;99052.63;;;12.36;100.00
75460;BME280;64039;53.060;9.342;2023-03-31T12:51:49;99050.78;;;12.99;100.00
75460;BME280;64039;53.060;9.342;2023-03-31T12:54:30;99049.97;;;12.95;100.00
75460;BME280;64039;53.060;9.342;2023-03-31T12:59:36;99047.34;;;12.97;100.00
75460;BME280;64039;53.060;9.342;2023-03-31T13:04:37;99038.66;;;12.95;100.00
75460;BME280;64039;53.060;9.342;2023-03-31T13:07:04;99039.97;;;12.69;100.00
75460;BME280;64039;53.060;9.342;2023-03-31T13:12:16;99038.75;;;12.88;100.00
75460;BME280;64039;53.060;9.342;2023-03-31T13:14:45;99030.72;;;13.01;100.00
75460;BME280;64039;53.060;9.342;2023-03-31T13:17:34;99031.91;;;12.81;100.00
75460;BME280;64039;53.060;9.342;2023-03-31T13:20:25;99024.00;;;12.86;100.00
75460;BME280;64039;53.060;9.342;2023-03-31T13:28:07;99026.78;;;12.19;100.00
75460;BME280;64039;53.060;9.342;2023-03-31T13:30:51;99017.03;;;12.33;100.00
75460;BME280;64039;53.060;9.342;2023-03-31T14:03:21;99017.72;;;12.45;100.00
75460;BME280;64039;53.060;9.342;2023-03-31T14:08:52;99007.53;;;12.27;100.00
75460;BME280;64039;53.060;9.342;2023-03-31T14:14:10;99011.97;;;12.77;100.00
75460;BME280;64039;53.060;9.342;2023-03-31T14:16:43;99002.69;;;13.11;100.00
75460;BME280;64039;53.060;9.342;2023-03-31T14:25:11;98998.44;;;13.54;100.00
75460;BME280;64039;53.060;9.342;2023-03-31T14:27:59;98995.47;;;13.25;100.00
75460;BME280;64039;53.060;9.342;2023-03-31T14:30:59;98993.16;;;13.08;100.00
75460;BME280;64039;53.060;9.342;2023-03-31T14:39:24;99001.91;;;12.54;100.00
75460;BME280;64039;53.060;9.342;2023-03-31T14:41:53;98999.97;;;12.67;100.00
75460;BME280;64039;53.060;9.342;2023-03-31T14:44:19;99002.72;;;12.59;100.00
75460;BME280;64039;53.060;9.342;2023-03-31T14:46:46;99004.66;;;12.45;100.00
75460;BME280;64039;53.060;9.342;2023-03-31T14:49:20;99004.94;;;12.26;100.00
75460;BME280;64039;53.060;9.342;2023-03-31T14:51:51;99001.53;;;12.21;100.00
75460;BME280;64039;53.060;9.342;2023-03-31T14:54:18;99003.66;;;12.53;100.00
75460;BME280;64039;53.060;9.342;2023-03-31T14:56:50;99000.19;;;12.53;100.00
75460;BME280;64039;53.060;9.342;2023-03-31T14:59:25;98996.00;;;12.42;100.00
75460;BME280;64039;53.060;9.342;2023-03-31T15:01:58;98998.00;;;12.26;100.00
75460;BME280;64039;53.060;9.342;2023-03-31T15:04:27;98998.81;;;12.30;100.00
75460;BME280;64039;53.060;9.342;2023-03-31T15:06:54;99007.00;;;12.02;100.00
75460;BME280;64039;53.060;9.342;2023-03-31T15:09:24;98996.19;;;12.30;100.00
75460;BME280;64039;53.060;9.342;2023-03-31T15:11:55;99000.56;;;12.30;100.00
75460;BME280;64039;53.060;9.342;2023-03-31T15:14:22;98996.91;;;12.40;100.00
75460;BME280;64039;53.060;9.342;2023-03-31T15:16:49;99003.38;;;12.16;100.00
75460;BME280;64039;53.060;9.342;2023-03-31T15:21:40;99008.38;;;12.30;100.00
75460;BME280;64039;53.060;9.342;2023-03-31T15:24:09;99009.06;;;12.41;100.00
75460;BME280;64039;53.060;9.342;2023-03-31T15:26:45;99011.25;;;12.69;100.00
75460;BME280;64039;53.060;9.342;2023-03-31T15:29:19;99004.34;;;12.66;100.00
75460;BME280;64039;53.060;9.342;2023-03-31T15:31:47;99006.94;;;12.66;100.00
75460;BME280;64039;53.060;9.342;2023-03-31T15:34:26;99005.75;;;12.84;100.00
75460;BME280;64039;53.060;9.342;2023-03-31T15:36:55;99003.09;;;12.87;100.00
75460;BME280;64039;53.060;9.342;2023-03-31T15:39:23;98999.53;;;12.92;100.00
75460;BME280;64039;53.060;9.342;2023-03-31T15:41:49;99006.88;;;12.71;100.00
75460;BME280;64039;53.060;9.342;2023-03-31T15:44:42;99002.44;;;12.76;100.00
75460;BME280;64039;53.060;9.342;2023-03-31T15:49:46;98993.22;;;13.05;100.00
75460;BME280;64039;53.060;9.342;2023-03-31T15:52:34;99000.69;;;13.25;100.00
75460;BME280;64039;53.060;9.342;2023-03-31T15:55:01;98994.75;;;13.15;100.00
75460;BME280;64039;53.060;9.342;2023-03-31T15:57:45;98998.34;;;13.11;100.00
75460;BME280;64039;53.060;9.342;2023-03-31T16:00:46;99001.59;;;13.23;100.00
75460;BME280;64039;53.060;9.342;2023-03-31T16:05:55;99002.16;;;12.92;100.00
75460;BME280;64039;53.060;9.342;2023-03-31T16:10:58;98996.91;;;12.41;100.00